Aérodrome :
LOGIN :

S'inscrire | Disclaimer

   EN    FR    IT 

 










Légende :    VFR   VFR Marginal   IFR   IFR Intensif   IFR Très Intensif
Visi : 
Plafond : 
>= 8 km
>= 3000ft
5 à 8 km
1000 à 3000 ft
1500m à 5 km
500 à 1000 ft
800 à 1500m
200 à 500 ft
< 800m
< 200 ft
Symboles :   Orages  Brouillard  Fortes neiges  Fortes précipitations  Vent > 20 kt
SIGMETs :   Divers  Orages  Givrage  Turbulence  Onde Orograph.  Cendres Volcan.






- Altitude de l'aérodrome : 614 ft
- Code IATA : CRL


EBCI - Charleroi

DERNIER METAR :
  • 311720Z AUTO 05011KT 020V090 CAVOK 21/03 Q1020

METARs EXPIRÉS :
  • 311650Z AUTO 06014KT CAVOK 21/02 Q1020
  • 311620Z AUTO 08011KT 030V100 CAVOK 21/01 Q1020
  • 311550Z AUTO 07011KT 030V100 CAVOK 21/01 Q1020
  • 311520Z AUTO 04013KT 010V070 CAVOK 22/02 Q1020
  • 311450Z AUTO 07013KT 050V110 CAVOK 21/00 Q1021

TAF TAF EBCI
Valide du 31 à 18h jusqu'au 02 à 00h UTC


311710Z 3118/0124 05008KT CAVOK



MET'MAP, la Météo Aéronautique d'un coup d'oeil ! - Copyright ORBIFLY Décembre 2007 - Disclaimer

ORBIFLY MET'MAP TEAM :

Programmation & Développement : Alexandra Zaïnal
Sur une idée originale de : Baudouin d'Aumeries
Assistance à la programmation : Marc-Olivier Méhu
Soutien technique & logistique : Manuel Goepfert

Contact : metmap@orbifly.com




SOURCES & CREDITS :

   NOAA